createdAt,value
2023-01-26T06:18:23.781Z,-2.76
2023-01-26T06:28:23.695Z,-2.73
2023-01-26T06:38:23.718Z,-2.69
2023-01-26T06:48:23.916Z,-2.62
2023-01-26T06:58:23.680Z,-2.58
2023-01-26T07:08:23.754Z,-2.51
2023-01-26T07:18:23.820Z,-2.47
2023-01-26T07:28:23.736Z,-2.40
2023-01-26T07:38:23.801Z,-2.30
2023-01-26T07:48:23.798Z,-2.28
2023-01-26T07:58:23.748Z,-2.17
2023-01-26T08:08:23.715Z,-2.05
2023-01-26T08:18:23.905Z,-1.98
2023-01-26T08:28:23.983Z,-1.95
2023-01-26T08:38:24.040Z,-1.83
2023-01-26T08:48:24.096Z,-1.77
2023-01-26T08:58:24.220Z,-1.73
2023-01-26T09:08:24.416Z,-1.65
2023-01-26T09:18:24.208Z,-1.61
2023-01-26T09:28:24.346Z,-1.56
2023-01-26T09:38:24.277Z,-1.54
2023-01-26T09:48:25.518Z,-1.52
2023-01-26T09:58:24.268Z,-1.49
2023-01-26T10:08:24.375Z,-1.38
2023-01-26T10:18:24.260Z,-1.37
2023-01-26T10:28:24.337Z,-1.23
2023-01-26T10:38:24.395Z,-1.19
2023-01-26T10:48:24.264Z,-1.30
2023-01-26T10:58:24.284Z,-1.20
2023-01-26T11:08:24.265Z,-1.09
2023-01-26T11:18:24.295Z,-1.01
2023-01-26T11:28:24.126Z,-0.90
2023-01-26T11:38:24.326Z,-0.96
2023-01-26T11:48:24.268Z,-0.96
2023-01-26T11:58:24.219Z,-0.96
2023-01-26T12:08:24.167Z,-0.91
2023-01-26T12:18:29.839Z,-0.99
2023-01-26T12:28:24.200Z,-0.89
2023-01-26T12:38:24.388Z,-0.97
2023-01-26T12:48:24.335Z,-0.77
2023-01-26T12:58:24.279Z,-0.82
2023-01-26T13:08:24.315Z,-0.82
2023-01-26T13:18:24.308Z,-0.78
2023-01-26T13:28:24.424Z,-0.66
2023-01-26T13:38:24.350Z,-0.70
2023-01-26T13:48:24.204Z,-0.62
2023-01-26T13:58:24.516Z,-0.64
2023-01-26T14:08:24.545Z,-0.55
2023-01-26T14:18:24.508Z,-0.58
2023-01-26T14:28:24.476Z,-0.60
2023-01-26T14:38:24.586Z,-0.62
2023-01-26T14:48:24.499Z,-0.63
2023-01-26T14:58:24.465Z,-0.63
2023-01-26T15:08:24.533Z,-0.64
2023-01-26T15:18:24.372Z,-0.62
2023-01-26T15:28:24.452Z,-0.61
2023-01-26T15:38:24.446Z,-0.59
2023-01-26T15:48:24.485Z,-0.60
2023-01-26T15:58:24.451Z,-0.60
2023-01-26T16:08:24.614Z,-0.59
2023-01-26T16:18:24.466Z,-0.57
2023-01-26T16:28:24.650Z,-0.57
2023-01-26T16:38:24.437Z,-0.57
2023-01-26T16:48:24.513Z,-0.55
2023-01-26T16:58:24.444Z,-0.54
2023-01-26T17:08:24.617Z,-0.51
2023-01-26T17:18:24.434Z,-0.47
2023-01-26T17:28:24.440Z,-0.39
2023-01-26T17:38:24.454Z,-0.38
2023-01-26T17:48:24.468Z,-0.37
2023-01-26T17:58:24.402Z,-0.30
2023-01-26T18:08:24.432Z,-0.29
2023-01-26T18:18:24.430Z,-0.26
2023-01-26T18:28:24.527Z,-0.21
2023-01-26T18:38:24.711Z,-0.15
2023-01-26T18:48:24.688Z,-0.11
2023-01-26T18:58:24.741Z,-0.08
2023-01-26T19:08:24.657Z,-0.05
2023-01-26T19:18:24.788Z,-0.03
